createdAt,value
2022-09-23T00:01:09.600Z,8.75
2022-09-23T00:03:38.423Z,7.53
2022-09-23T00:06:07.109Z,8.82
2022-09-23T00:08:34.505Z,9.07
2022-09-23T00:11:06.592Z,8.57
2022-09-23T00:13:34.306Z,7.95
2022-09-23T00:16:05.105Z,7.70
2022-09-23T00:18:32.568Z,8.23
2022-09-23T00:21:03.481Z,8.25
2022-09-23T00:23:30.632Z,7.82
2022-09-23T00:25:58.822Z,8.68
2022-09-23T00:28:25.941Z,8.52
2022-09-23T00:30:53.284Z,7.95
2022-09-23T00:33:20.612Z,8.57
2022-09-23T00:35:47.796Z,8.48
2022-09-23T00:38:15.068Z,8.68
2022-09-23T00:40:46.151Z,7.72
2022-09-23T00:45:41.195Z,7.10
2022-09-23T00:48:13.529Z,8.30
2022-09-23T00:50:42.848Z,8.15
2022-09-23T00:53:12.026Z,8.55
2022-09-23T00:55:49.982Z,10.00
2022-09-23T00:58:19.231Z,8.68
2022-09-23T01:00:46.895Z,8.77
2022-09-23T01:03:15.308Z,8.55
2022-09-23T01:05:43.207Z,9.32
2022-09-23T01:08:12.026Z,8.50
2022-09-23T01:10:47.529Z,9.15
2022-09-23T01:13:27.425Z,9.75
2022-09-23T01:16:03.856Z,8.82
2022-09-23T01:18:43.531Z,9.77
2022-09-23T01:21:29.584Z,9.55
2022-09-23T01:24:05.953Z,10.30
2022-09-23T01:26:45.536Z,8.88
2022-09-23T01:29:33.371Z,9.55
2022-09-23T01:32:03.879Z,8.75
2022-09-23T01:34:39.301Z,9.32
2022-09-23T01:37:09.632Z,8.43
2022-09-23T01:39:42.813Z,9.17
2022-09-23T01:42:10.059Z,9.50
2022-09-23T01:44:42.986Z,9.57
2022-09-23T01:47:30.731Z,9.43
2022-09-23T01:49:59.921Z,9.73
2022-09-23T01:52:41.446Z,9.02
2022-09-23T01:55:08.690Z,9.43
2022-09-23T01:57:39.710Z,10.05
2022-09-23T02:00:12.642Z,9.70
2022-09-23T02:03:01.784Z,10.32
2022-09-23T02:05:31.517Z,9.27
2022-09-23T02:08:00.727Z,9.05
2022-09-23T02:10:37.574Z,9.25
2022-09-23T02:13:07.714Z,10.65
2022-09-23T02:15:40.279Z,9.13
2022-09-23T02:18:29.235Z,10.70
2022-09-23T02:21:01.300Z,9.70
2022-09-23T02:23:30.993Z,9.80
2022-09-23T02:26:04.232Z,9.30
2022-09-23T02:28:49.486Z,8.95
2022-09-23T02:31:16.887Z,9.27
2022-09-23T02:34:02.605Z,8.38
2022-09-23T02:36:50.908Z,9.70
2022-09-23T02:39:19.645Z,9.32
2022-09-23T02:41:58.088Z,9.23
2022-09-23T02:44:25.441Z,9.30
2022-09-23T02:46:53.217Z,8.95
2022-09-23T02:49:25.507Z,9.35
2022-09-23T02:51:54.516Z,9.85
2022-09-23T02:54:29.681Z,9.45
2022-09-23T02:56:57.417Z,9.20
2022-09-23T02:59:24.653Z,9.40
2022-09-23T03:01:52.946Z,9.05
2022-09-23T03:04:38.400Z,10.30
2022-09-23T03:07:06.434Z,9.60
2022-09-23T03:09:40.797Z,9.82
2022-09-23T03:12:15.646Z,8.88
2022-09-23T03:14:53.909Z,9.00
2022-09-23T03:17:30.294Z,9.48
2022-09-23T03:20:00.892Z,9.38
2022-09-23T03:22:30.776Z,9.57
2022-09-23T03:25:00.958Z,8.85
2022-09-23T03:27:30.823Z,10.07
2022-09-23T03:29:58.274Z,8.48
2022-09-23T03:32:28.071Z,8.88
2022-09-23T03:34:56.878Z,9.43
2022-09-23T03:37:26.741Z,7.82
2022-09-23T03:39:57.237Z,8.25
2022-09-23T03:42:26.008Z,8.40
2022-09-23T03:44:54.282Z,8.25
2022-09-23T03:47:22.073Z,7.68
2022-09-23T03:49:50.297Z,7.43
2022-09-23T03:52:18.387Z,7.65
2022-09-23T03:54:52.995Z,7.45
2022-09-23T03:57:23.904Z,7.80
2022-09-23T03:59:51.237Z,7.93
2022-09-23T04:02:19.351Z,8.32
2022-09-23T04:04:46.597Z,8.57
2022-09-23T04:07:14.164Z,8.65
2022-09-23T04:09:41.795Z,9.88
2022-09-23T04:12:10.440Z,9.07
2022-09-23T04:14:37.626Z,8.90
2022-09-23T04:17:04.955Z,8.40
2022-09-23T04:19:32.156Z,7.80
2022-09-23T04:21:59.325Z,7.93
2022-09-23T04:24:26.578Z,7.60
2022-09-23T04:26:54.777Z,7.93
2022-09-23T04:29:22.424Z,7.80
2022-09-23T04:31:49.808Z,7.88
2022-09-23T04:34:17.670Z,7.75
2022-09-23T04:36:45.357Z,7.50
2022-09-23T04:39:13.285Z,6.65
2022-09-23T04:41:40.493Z,7.25
2022-09-23T04:44:07.730Z,7.88
2022-09-23T04:46:35.184Z,7.60
2022-09-23T04:49:02.494Z,7.68
2022-09-23T04:51:29.728Z,7.88
2022-09-23T04:53:57.077Z,8.30
2022-09-23T04:56:25.606Z,7.65
2022-09-23T04:58:52.918Z,7.85
2022-09-23T05:01:25.382Z,8.02
2022-09-23T05:03:54.028Z,8.00
2022-09-23T05:06:21.647Z,8.23
2022-09-23T05:08:50.492Z,7.63
2022-09-23T05:11:18.747Z,8.32
2022-09-23T05:13:46.458Z,7.63
2022-09-23T05:16:13.947Z,8.25
2022-09-23T05:18:42.828Z,7.50
2022-09-23T05:21:17.086Z,8.00
2022-09-23T05:23:47.552Z,8.35
2022-09-23T05:26:14.950Z,8.25
2022-09-23T05:28:42.497Z,7.78
2022-09-23T05:31:19.685Z,8.13
2022-09-23T05:33:56.077Z,7.50
2022-09-23T05:36:23.727Z,8.07
2022-09-23T05:38:51.463Z,8.35
2022-09-23T05:41:19.746Z,7.88
2022-09-23T05:43:47.482Z,8.27
2022-09-23T05:46:16.121Z,7.80
2022-09-23T05:48:45.912Z,8.80
2022-09-23T05:51:20.382Z,7.78
2022-09-23T05:53:48.414Z,8.00
2022-09-23T05:56:17.258Z,7.75
2022-09-23T05:58:44.698Z,7.53
2022-09-23T06:01:18.172Z,7.78
2022-09-23T06:03:49.138Z,8.15
2022-09-23T06:06:18.242Z,7.55
2022-09-23T06:08:48.620Z,7.63
2022-09-23T06:11:16.001Z,7.30
2022-09-23T06:13:43.336Z,7.38
2022-09-23T06:16:12.324Z,7.95
2022-09-23T06:18:40.895Z,7.45
2022-09-23T06:21:08.737Z,6.53
2022-09-23T06:23:39.221Z,6.93
2022-09-23T06:26:08.754Z,6.85
2022-09-23T06:28:36.861Z,6.07
2022-09-23T06:31:10.822Z,6.50
2022-09-23T06:33:40.528Z,6.35
2022-09-23T06:36:08.260Z,6.53
2022-09-23T06:38:35.663Z,7.28
2022-09-23T06:41:03.613Z,6.65
2022-09-23T06:43:31.285Z,7.20
2022-09-23T06:45:59.446Z,7.15
2022-09-23T06:48:27.550Z,7.65
2022-09-23T06:50:55.155Z,7.53
2022-09-23T06:53:25.510Z,7.45
2022-09-23T06:56:02.774Z,7.03
2022-09-23T06:58:31.718Z,8.25
2022-09-23T07:01:02.654Z,8.48
2022-09-23T07:03:30.949Z,7.65
2022-09-23T07:05:58.575Z,7.68
2022-09-23T07:08:27.307Z,7.65
2022-09-23T07:10:55.438Z,7.47
2022-09-23T07:13:23.152Z,8.15
2022-09-23T07:15:54.180Z,8.63
2022-09-23T07:18:23.910Z,7.68
2022-09-23T07:20:51.292Z,7.72
2022-09-23T07:23:18.997Z,7.25
2022-09-23T07:25:51.482Z,7.55
2022-09-23T07:28:19.201Z,9.75
2022-09-23T07:30:57.331Z,7.35
2022-09-23T07:33:32.446Z,7.25
2022-09-23T07:36:00.124Z,7.45
2022-09-23T07:38:30.436Z,7.60
2022-09-23T07:41:05.279Z,8.30
2022-09-23T07:43:33.013Z,8.52
2022-09-23T07:46:02.229Z,9.05
2022-09-23T07:48:34.102Z,9.20
2022-09-23T07:51:02.148Z,7.63
2022-09-23T07:53:31.432Z,8.43
2022-09-23T07:55:59.454Z,7.28
2022-09-23T07:58:26.963Z,8.18
2022-09-23T08:00:54.135Z,7.80
2022-09-23T08:03:21.412Z,7.00
2022-09-23T08:05:48.854Z,6.97
2022-09-23T08:08:17.313Z,6.25
2022-09-23T08:10:45.178Z,7.65
2022-09-23T08:13:12.500Z,6.20
2022-09-23T08:15:40.461Z,3.58
2022-09-23T08:18:07.681Z,3.10
2022-09-23T08:20:48.073Z,2.83
2022-09-23T08:23:16.228Z,2.75
2022-09-23T08:25:46.811Z,3.50
2022-09-23T08:28:19.237Z,3.38
2022-09-23T08:30:49.278Z,2.80
2022-09-23T08:33:21.001Z,3.20
2022-09-23T08:35:50.684Z,2.70
2022-09-23T08:38:18.033Z,2.45
2022-09-23T08:40:47.384Z,2.35
2022-09-23T08:43:34.668Z,2.42
2022-09-23T08:46:03.846Z,2.38
2022-09-23T08:48:39.218Z,2.40
2022-09-23T08:51:08.117Z,2.67
2022-09-23T08:53:36.761Z,3.15
2022-09-23T08:56:07.327Z,3.38
2022-09-23T08:58:39.459Z,3.75
2022-09-23T09:01:25.987Z,4.07
2022-09-23T09:03:55.231Z,4.28
2022-09-23T09:06:27.237Z,4.68
2022-09-23T09:09:04.218Z,5.00
2022-09-23T09:11:39.801Z,5.05
2022-09-23T09:14:13.975Z,6.20
2022-09-23T09:16:59.365Z,5.70
2022-09-23T09:19:32.377Z,6.60
2022-09-23T09:22:00.219Z,5.93
2022-09-23T09:24:35.106Z,6.07
2022-09-23T09:27:09.961Z,5.93
2022-09-23T09:29:39.311Z,6.70
2022-09-23T09:32:16.051Z,6.07
2022-09-23T09:34:54.734Z,5.25
2022-09-23T09:37:37.300Z,4.65
2022-09-23T09:40:04.757Z,5.20
2022-09-23T09:42:41.004Z,4.90
2022-09-23T09:45:11.208Z,4.10
2022-09-23T09:47:58.698Z,4.15
2022-09-23T09:50:43.657Z,4.13
2022-09-23T09:53:22.475Z,4.40
2022-09-23T09:56:05.889Z,4.40
2022-09-23T09:58:52.235Z,4.47
2022-09-23T10:01:27.584Z,4.15
2022-09-23T10:03:59.191Z,4.47
2022-09-23T10:06:28.364Z,4.20
2022-09-23T10:09:10.793Z,4.80
2022-09-23T10:11:38.661Z,3.63
2022-09-23T10:14:08.231Z,5.00
2022-09-23T10:16:37.310Z,4.63
2022-09-23T10:19:05.647Z,4.25
2022-09-23T10:21:37.734Z,4.78
2022-09-23T10:24:06.444Z,4.85
2022-09-23T10:26:36.118Z,5.95
2022-09-23T10:29:05.079Z,5.18
2022-09-23T10:31:36.603Z,5.30
2022-09-23T10:34:24.222Z,5.80
2022-09-23T10:37:08.425Z,5.28
2022-09-23T10:39:54.231Z,6.30
2022-09-23T10:42:40.262Z,5.45
2022-09-23T10:45:39.739Z,4.60
2022-09-23T10:48:12.918Z,4.50
2022-09-23T10:50:48.841Z,4.13
2022-09-23T10:53:20.738Z,3.85
2022-09-23T10:55:47.875Z,3.17
2022-09-23T10:58:15.390Z,2.78
2022-09-23T11:01:01.870Z,3.00
2022-09-23T11:03:38.634Z,3.88
2022-09-23T11:06:08.973Z,3.63
2022-09-23T11:08:53.163Z,2.03
2022-09-23T11:11:46.477Z,1.88
2022-09-23T11:14:17.076Z,2.22
2022-09-23T11:16:44.337Z,2.28
2022-09-23T11:19:47.687Z,2.25
2022-09-23T11:22:36.060Z,2.60
2022-09-23T11:25:12.332Z,3.60
2022-09-23T11:27:39.502Z,4.65
2022-09-23T11:30:20.584Z,4.70
2022-09-23T11:32:53.860Z,5.00
2022-09-23T11:35:21.404Z,5.10
2022-09-23T11:38:14.987Z,5.15
2022-09-23T11:40:46.231Z,4.40
2022-09-23T11:43:14.060Z,3.15
2022-09-23T11:45:42.779Z,2.83
2022-09-23T11:48:14.257Z,2.88
2022-09-23T11:50:47.463Z,2.60
2022-09-23T11:53:37.316Z,2.72
2022-09-23T11:56:08.395Z,2.72
2022-09-23T11:58:56.270Z,2.80
2022-09-23T12:01:36.937Z,2.13
2022-09-23T12:04:19.634Z,1.80
2022-09-23T12:06:49.682Z,1.50
2022-09-23T12:09:41.086Z,1.65
2022-09-23T12:12:23.928Z,1.83
2022-09-23T12:15:02.692Z,1.60
2022-09-23T12:17:44.278Z,1.55
2022-09-23T12:20:20.954Z,2.08
2022-09-23T12:22:48.110Z,2.10
2022-09-23T12:25:46.078Z,2.10
2022-09-23T12:28:16.230Z,2.60
2022-09-23T12:30:44.079Z,1.80
2022-09-23T12:33:17.231Z,1.75
2022-09-23T12:35:46.447Z,1.67
2022-09-23T12:38:28.561Z,1.90
2022-09-23T12:40:56.363Z,1.50
2022-09-23T12:43:31.264Z,1.70
2022-09-23T12:46:17.314Z,1.80
2022-09-23T12:48:45.951Z,2.13
2022-09-23T12:51:13.095Z,1.98
2022-09-23T12:53:40.267Z,2.00
2022-09-23T12:56:19.022Z,2.05
2022-09-23T12:58:49.040Z,2.42
2022-09-23T13:01:19.459Z,2.10
2022-09-23T13:04:15.684Z,2.35
2022-09-23T13:06:58.585Z,2.58
2022-09-23T13:09:30.254Z,2.53
2022-09-23T13:12:02.140Z,1.50
2022-09-23T13:14:30.569Z,1.50
2022-09-23T13:16:58.549Z,1.60
2022-09-23T13:19:28.812Z,1.55
2022-09-23T13:22:00.197Z,1.88
2022-09-23T13:24:29.053Z,1.75
2022-09-23T13:27:14.462Z,2.15
2022-09-23T13:29:51.872Z,2.00
2022-09-23T13:32:20.149Z,2.05
2022-09-23T13:34:58.270Z,2.20
2022-09-23T13:37:47.491Z,1.90
2022-09-23T13:40:19.900Z,2.38
2022-09-23T13:43:10.173Z,2.75
2022-09-23T13:45:38.975Z,2.80
2022-09-23T13:48:07.804Z,2.83
2022-09-23T13:50:36.692Z,2.67
2022-09-23T13:53:08.472Z,2.30
2022-09-23T13:55:39.955Z,2.05
2022-09-23T13:58:24.524Z,2.15
2022-09-23T14:00:52.117Z,2.08
2022-09-23T14:03:27.111Z,2.30
2022-09-23T14:05:56.082Z,2.80
2022-09-23T14:08:24.246Z,2.53
2022-09-23T14:10:51.965Z,2.85
2022-09-23T14:13:25.678Z,3.65
2022-09-23T14:15:55.207Z,3.63
2022-09-23T14:18:28.878Z,3.30
2022-09-23T14:20:56.236Z,3.05
2022-09-23T14:23:23.456Z,3.58
2022-09-23T14:25:52.084Z,3.30
2022-09-23T14:28:20.966Z,3.25
2022-09-23T14:30:48.529Z,3.40
2022-09-23T14:33:22.715Z,3.95
2022-09-23T14:35:52.210Z,3.88
2022-09-23T14:38:43.173Z,4.38
2022-09-23T14:41:28.458Z,3.60
2022-09-23T14:43:57.883Z,3.92
2022-09-23T14:46:26.811Z,2.53
2022-09-23T14:48:57.031Z,2.28
2022-09-23T14:51:30.197Z,2.25
2022-09-23T14:54:17.359Z,2.35
2022-09-23T14:56:44.670Z,2.40
2022-09-23T14:59:25.304Z,3.00
2022-09-23T15:01:52.743Z,3.40
2022-09-23T15:04:22.983Z,3.03
2022-09-23T15:06:55.095Z,2.85
2022-09-23T15:09:26.397Z,3.10
2022-09-23T15:12:06.014Z,3.00
2022-09-23T15:14:42.108Z,3.05
2022-09-23T15:17:35.934Z,2.75
2022-09-23T15:20:04.829Z,2.88
2022-09-23T15:22:32.107Z,3.35
2022-09-23T15:25:17.448Z,3.60
2022-09-23T15:27:56.428Z,2.78
2022-09-23T15:30:23.815Z,3.78
2022-09-23T15:32:51.028Z,3.92
2022-09-23T15:35:19.517Z,3.50
2022-09-23T15:37:47.639Z,3.08
2022-09-23T15:40:18.991Z,3.25
2022-09-23T15:42:52.586Z,3.55
2022-09-23T15:45:23.500Z,2.97
2022-09-23T15:47:51.692Z,3.60
2022-09-23T15:50:19.526Z,3.15
2022-09-23T15:52:46.762Z,3.55
2022-09-23T15:55:18.400Z,3.88
2022-09-23T15:57:45.765Z,4.32
2022-09-23T16:00:13.561Z,4.10
2022-09-23T16:02:41.024Z,4.65
2022-09-23T16:05:12.819Z,3.65
2022-09-23T16:07:40.023Z,3.20
2022-09-23T16:10:07.488Z,3.55
2022-09-23T16:12:34.867Z,3.45
2022-09-23T16:15:02.191Z,3.65
2022-09-23T16:17:29.343Z,3.42
2022-09-23T16:19:56.677Z,3.33
2022-09-23T16:22:23.869Z,3.45
2022-09-23T16:24:51.048Z,3.22
2022-09-23T16:27:19.187Z,3.60
2022-09-23T16:29:46.391Z,3.47
2022-09-23T16:32:13.563Z,3.45
2022-09-23T16:34:40.932Z,3.00
2022-09-23T16:37:12.207Z,3.72
2022-09-23T16:42:06.742Z,3.53
2022-09-23T16:44:33.997Z,3.97
2022-09-23T16:47:01.169Z,3.67
2022-09-23T16:49:28.530Z,3.65
2022-09-23T16:51:56.227Z,4.22
2022-09-23T16:54:23.939Z,4.20
2022-09-23T16:56:52.766Z,4.15
2022-09-23T16:59:19.962Z,4.88
2022-09-23T17:02:05.750Z,4.90
2022-09-23T17:04:32.932Z,4.65
2022-09-23T17:07:00.113Z,6.10
2022-09-23T17:09:29.335Z,5.93
2022-09-23T17:12:05.864Z,6.10
2022-09-23T17:14:33.881Z,6.22
2022-09-23T17:17:01.291Z,6.07
2022-09-23T17:19:28.696Z,6.30
2022-09-23T17:21:55.928Z,6.10
2022-09-23T17:24:23.584Z,6.47
2022-09-23T17:26:53.285Z,7.05
2022-09-23T17:29:20.833Z,6.50
2022-09-23T17:31:48.097Z,7.82
2022-09-23T17:34:16.406Z,6.70
2022-09-23T17:36:43.768Z,7.18
2022-09-23T17:39:11.072Z,7.28
2022-09-23T17:41:39.283Z,7.55
2022-09-23T17:44:08.155Z,7.47
2022-09-23T17:46:35.351Z,7.43
2022-09-23T17:49:03.956Z,6.75
2022-09-23T17:51:31.349Z,7.10
2022-09-23T17:53:58.521Z,6.50
2022-09-23T17:56:26.756Z,8.20
2022-09-23T17:58:54.521Z,7.55
2022-09-23T18:01:25.728Z,7.57
2022-09-23T18:03:57.114Z,7.13
2022-09-23T18:08:51.904Z,7.38
2022-09-23T18:11:23.683Z,7.20
2022-09-23T18:13:52.201Z,7.28
2022-09-23T18:16:20.112Z,7.20
2022-09-23T18:18:51.117Z,7.07
2022-09-23T18:21:19.616Z,7.75
2022-09-23T18:23:47.195Z,7.97
2022-09-23T18:26:18.580Z,6.47
2022-09-23T18:28:45.857Z,6.57
2022-09-23T18:31:13.438Z,5.90
2022-09-23T18:33:40.967Z,5.57
2022-09-23T18:36:09.300Z,5.60
2022-09-23T18:38:36.468Z,5.72
2022-09-23T18:41:03.881Z,5.45
2022-09-23T18:43:40.053Z,4.90
2022-09-23T18:46:12.102Z,4.30
2022-09-23T18:48:58.417Z,4.60
2022-09-23T18:51:28.416Z,4.43
2022-09-23T18:53:59.467Z,4.90
2022-09-23T18:56:27.886Z,4.38
2022-09-23T18:58:55.921Z,4.13
2022-09-23T19:01:24.035Z,3.80
2022-09-23T19:03:55.817Z,4.57
2022-09-23T19:06:23.518Z,3.95
2022-09-23T19:08:51.993Z,4.43
2022-09-23T19:11:19.666Z,5.07
2022-09-23T19:13:47.087Z,4.93
2022-09-23T19:16:17.592Z,5.10
2022-09-23T19:18:49.128Z,4.65
2022-09-23T19:21:17.765Z,5.70
2022-09-23T19:23:53.315Z,5.68
2022-09-23T19:26:22.773Z,5.05
2022-09-23T19:28:50.698Z,5.97
2022-09-23T19:31:20.366Z,5.18
2022-09-23T19:33:55.953Z,4.90
2022-09-23T19:36:33.296Z,4.22
2022-09-23T19:39:02.897Z,4.53
2022-09-23T19:41:35.608Z,4.22
2022-09-23T19:44:03.660Z,4.68
2022-09-23T19:46:32.376Z,4.38
2022-09-23T19:49:00.436Z,4.18
2022-09-23T19:51:28.319Z,4.10
2022-09-23T19:53:55.558Z,4.75
2022-09-23T19:56:22.908Z,4.78
2022-09-23T19:58:52.335Z,4.05
2022-09-23T20:01:19.888Z,4.38
2022-09-23T20:03:47.783Z,4.88
2022-09-23T20:06:16.002Z,4.57
2022-09-23T20:08:43.693Z,4.95
2022-09-23T20:11:14.092Z,4.70
2022-09-23T20:13:42.588Z,5.07
2022-09-23T20:16:11.342Z,4.35
2022-09-23T20:18:39.373Z,4.57
2022-09-23T20:21:07.210Z,4.07
2022-09-23T20:23:34.601Z,4.72
2022-09-23T20:26:20.951Z,4.07
2022-09-23T20:28:48.509Z,4.25
2022-09-23T20:31:16.185Z,4.40
2022-09-23T20:33:43.601Z,3.90
2022-09-23T20:36:12.909Z,4.65
2022-09-23T20:38:40.572Z,4.47
2022-09-23T20:41:09.440Z,3.88
2022-09-23T20:43:36.754Z,4.22
2022-09-23T20:46:05.366Z,3.80
2022-09-23T20:48:34.001Z,3.83
2022-09-23T20:51:01.929Z,4.57
2022-09-23T20:53:29.576Z,4.28
2022-09-23T20:55:58.281Z,4.55
2022-09-23T20:58:29.314Z,4.30
2022-09-23T21:01:12.482Z,4.50
2022-09-23T21:03:41.025Z,4.38
2022-09-23T21:06:09.003Z,4.28
2022-09-23T21:08:37.419Z,4.50
2022-09-23T21:11:05.914Z,4.53
2022-09-23T21:13:34.541Z,4.45
2022-09-23T21:16:05.769Z,4.88
2022-09-23T21:21:00.857Z,4.45
2022-09-23T21:23:29.369Z,4.80
2022-09-23T21:26:13.152Z,5.30
2022-09-23T21:28:41.642Z,4.50
2022-09-23T21:31:10.216Z,4.90
2022-09-23T21:33:37.539Z,4.68
2022-09-23T21:36:07.097Z,5.00
2022-09-23T21:38:37.752Z,5.13
2022-09-23T21:41:06.540Z,5.53
2022-09-23T21:43:35.515Z,5.30
2022-09-23T21:46:04.154Z,5.20
2022-09-23T21:48:32.198Z,5.30
2022-09-23T21:51:06.379Z,5.35
2022-09-23T21:53:35.032Z,5.47
2022-09-23T21:56:03.625Z,4.85
2022-09-23T21:58:34.747Z,5.20
2022-09-23T22:01:02.668Z,6.20
2022-09-23T22:03:30.016Z,5.82
2022-09-23T22:06:19.678Z,6.50
2022-09-23T22:08:46.912Z,5.50
2022-09-23T22:11:33.855Z,5.68
2022-09-23T22:14:02.161Z,6.10
2022-09-23T22:16:29.859Z,5.93
2022-09-23T22:18:58.405Z,5.82
2022-09-23T22:21:27.508Z,6.05
2022-09-23T22:23:57.050Z,6.15
2022-09-23T22:26:25.543Z,6.05
2022-09-23T22:29:11.310Z,6.07
2022-09-23T22:31:57.404Z,6.18
2022-09-23T22:34:48.642Z,6.60
2022-09-23T22:37:19.039Z,6.03
2022-09-23T22:39:46.234Z,6.93
2022-09-23T22:42:14.244Z,5.90
2022-09-23T22:44:41.582Z,6.47
2022-09-23T22:47:09.290Z,6.65
2022-09-23T22:49:36.577Z,6.43
2022-09-23T22:52:08.153Z,6.43
2022-09-23T22:54:35.793Z,6.78
2022-09-23T22:57:07.156Z,6.65
2022-09-23T22:59:34.652Z,7.68
2022-09-23T23:02:06.632Z,7.85
2022-09-23T23:04:34.115Z,8.68
2022-09-23T23:07:03.247Z,8.48
2022-09-23T23:09:30.425Z,8.20
2022-09-23T23:11:57.626Z,9.20
2022-09-23T23:14:26.582Z,8.68
2022-09-23T23:16:54.386Z,7.80
2022-09-23T23:19:21.617Z,8.32
2022-09-23T23:21:50.159Z,8.18
2022-09-23T23:24:19.168Z,8.80
2022-09-23T23:26:46.777Z,8.07
2022-09-23T23:29:15.350Z,7.70
2022-09-23T23:31:43.047Z,7.43
2022-09-23T23:34:14.354Z,8.30
2022-09-23T23:39:08.796Z,7.78
2022-09-23T23:41:36.361Z,7.97
2022-09-23T23:44:03.784Z,7.85
2022-09-23T23:46:32.081Z,7.88
2022-09-23T23:48:59.944Z,7.82
2022-09-23T23:51:27.642Z,8.32
2022-09-23T23:53:55.399Z,8.43
2022-09-23T23:56:24.386Z,8.18
2022-09-23T23:58:58.985Z,7.97
